Time;durP1;ratioP1;P1;durP2;ratioP2;P2;SDS_P1;SDS_P2;PMS_P1;PMS_P2;Temp;Humidity;BMP_temperature;BMP_pressure;BME280_temperature;BME280_humidity;BME280_pressure;Samples;Min_cycle;Max_cycle;Signal;HPM_P1;HPM_P2
2021/03/17 00:00:08;;;;;;;8.73;5.43;;;;;;;;;;1046418;28;20440;-81
2021/03/17 00:00:41;;;;;;;7.18;6.47;;;;;;;;;;1040683;28;20057;-81
2021/03/17 00:01:14;;;;;;;7.43;6.28;;;;;;;;;;1040929;28;20056;-81
2021/03/17 00:01:45;;;;;;;7.72;6.35;;;;;;;;;;1038177;28;20050;-81
2021/03/17 00:02:17;;;;;;;6.50;5.75;;;;;;;;;;1036920;28;20060;-81
2021/03/17 00:02:49;;;;;;;8.80;6.32;;;;;;;;;;1036137;28;20603;-81
2021/03/17 00:03:20;;;;;;;8.00;6.28;;;;;;;;;;1037515;28;20054;-82
2021/03/17 00:03:51;;;;;;;7.97;6.40;;;;;;;;;;1036026;28;20380;-81
2021/03/17 00:04:22;;;;;;;7.10;6.20;;;;;;;;;;1040495;28;20478;-81
2021/03/17 00:04:53;;;;;;;6.80;5.88;;;;;;;;;;1033832;28;20493;-81
2021/03/17 00:05:27;;;;;;;7.28;6.13;;;;;;;;;;1031895;28;20387;-81
2021/03/17 00:05:59;;;;;;;8.73;6.57;;;;;;;;;;1027767;28;20055;-81
2021/03/17 00:06:30;;;;;;;6.57;5.90;;;;;;;;;;1034011;28;20410;-81
2021/03/17 00:07:02;;;;;;;7.45;6.57;;;;;;;;;;1035960;28;20548;-82
2021/03/17 00:07:34;;;;;;;7.00;6.30;;;;;;;;;;1036415;28;20438;-82
2021/03/17 00:08:05;;;;;;;6.95;5.78;;;;;;;;;;1036851;28;20514;-82
2021/03/17 00:08:36;;;;;;;10.20;6.47;;;;;;;;;;1040548;28;20079;-82
2021/03/17 00:09:07;;;;;;;6.63;5.78;;;;;;;;;;1037656;28;20049;-81
2021/03/17 00:09:38;;;;;;;7.38;6.03;;;;;;;;;;1037855;28;20084;-81
2021/03/17 00:10:10;;;;;;;7.18;5.93;;;;;;;;;;1036166;28;20050;-81
2021/03/17 00:10:44;;;;;;;6.22;5.55;;;;;;;;;;1036603;28;20425;-82
2021/03/17 00:11:15;;;;;;;7.30;6.25;;;;;;;;;;1039493;28;20053;-82
2021/03/17 00:12:03;;;;;;;7.35;5.88;;;;;;;;;;1041822;28;20179;-81
2021/03/17 00:12:34;;;;;;;8.18;6.22;;;;;;;;;;1039974;28;20056;-81
2021/03/17 00:13:05;;;;;;;6.82;5.90;;;;;;;;;;1042756;28;20055;-82
2021/03/17 00:13:36;;;;;;;7.47;6.00;;;;;;;;;;1038539;28;20443;-82
2021/03/17 00:14:07;;;;;;;7.80;6.50;;;;;;;;;;1031926;28;20431;-82
2021/03/17 00:14:38;;;;;;;8.05;6.80;;;;;;;;;;1030298;28;20420;-82
2021/03/17 00:15:12;;;;;;;6.15;5.55;;;;;;;;;;1032125;28;20046;-82
2021/03/17 00:15:44;;;;;;;6.22;5.63;;;;;;;;;;1032650;28;20057;-81
2021/03/17 00:16:15;;;;;;;8.10;6.68;;;;;;;;;;1032482;28;20046;-82
2021/03/17 00:16:46;;;;;;;7.30;6.05;;;;;;;;;;1032639;28;20050;-82
2021/03/17 00:17:18;;;;;;;7.57;5.95;;;;;;;;;;1036862;28;20042;-82
2021/03/17 00:17:49;;;;;;;7.75;6.00;;;;;;;;;;1038317;28;20046;-82
2021/03/17 00:18:21;;;;;;;8.48;6.30;;;;;;;;;;1040259;28;20057;-82
2021/03/17 00:18:55;;;;;;;9.88;5.75;;;;;;;;;;1036130;28;20049;-82
2021/03/17 00:19:25;;;;;;;6.50;5.80;;;;;;;;;;1031357;28;20478;-82
2021/03/17 00:19:56;;;;;;;7.13;6.43;;;;;;;;;;1040758;28;20525;-82
2021/03/17 00:20:29;;;;;;;7.38;6.45;;;;;;;;;;1044094;28;20053;-82
2021/03/17 00:21:00;;;;;;;9.50;6.32;;;;;;;;;;1039336;28;20049;-82
2021/03/17 00:21:31;;;;;;;9.82;6.70;;;;;;;;;;1036449;28;20046;-82
2021/03/17 00:22:03;;;;;;;8.32;6.38;;;;;;;;;;1039991;28;20136;-81
2021/03/17 00:22:34;;;;;;;6.90;6.20;;;;;;;;;;1032350;28;20121;-81
2021/03/17 00:23:05;;;;;;;7.03;6.25;;;;;;;;;;1031864;28;20403;-82
2021/03/17 00:23:36;;;;;;;6.70;6.00;;;;;;;;;;1032209;28;20511;-82
2021/03/17 00:24:07;;;;;;;6.88;6.10;;;;;;;;;;1032581;28;20507;-81
2021/03/17 00:24:38;;;;;;;7.13;6.15;;;;;;;;;;1036724;28;20056;-81
2021/03/17 00:25:10;;;;;;;7.63;6.68;;;;;;;;;;1039981;28;20057;-81
2021/03/17 00:25:42;;;;;;;7.95;6.38;;;;;;;;;;1031821;28;20046;-82
2021/03/17 00:26:14;;;;;;;9.63;6.43;;;;;;;;;;1024358;28;20122;-82
2021/03/17 00:26:45;;;;;;;6.82;5.95;;;;;;;;;;1028595;28;20487;-81
2021/03/17 00:27:16;;;;;;;6.88;5.88;;;;;;;;;;1032311;28;20055;-81
2021/03/17 00:27:47;;;;;;;6.45;5.78;;;;;;;;;;1035816;28;20104;-81
2021/03/17 00:28:18;;;;;;;6.82;5.95;;;;;;;;;;1032691;28;20085;-81
2021/03/17 00:28:49;;;;;;;6.93;6.18;;;;;;;;;;1032657;28;20443;-82
2021/03/17 00:29:20;;;;;;;7.13;6.00;;;;;;;;;;1036085;28;20077;-82
2021/03/17 00:29:51;;;;;;;7.85;6.75;;;;;;;;;;1032495;28;20054;-82
2021/03/17 00:30:23;;;;;;;8.57;7.20;;;;;;;;;;1032650;28;20229;-82
2021/03/17 00:30:54;;;;;;;6.88;6.05;;;;;;;;;;1036758;28;20053;-82
2021/03/17 00:31:25;;;;;;;8.15;6.45;;;;;;;;;;1040919;28;20053;-82
2021/03/17 00:31:56;;;;;;;6.57;5.85;;;;;;;;;;1037487;28;20050;-82
2021/03/17 00:32:27;;;;;;;7.78;6.50;;;;;;;;;;1035702;28;20491;-82
2021/03/17 00:33:00;;;;;;;7.93;7.13;;;;;;;;;;1040986;28;20494;-82
2021/03/17 00:33:31;;;;;;;7.00;6.22;;;;;;;;;;1037251;28;20060;-82
2021/03/17 00:34:05;;;;;;;7.20;6.25;;;;;;;;;;1033797;28;20474;-82
2021/03/17 00:34:36;;;;;;;7.10;6.18;;;;;;;;;;1040835;28;20429;-82
2021/03/17 00:35:08;;;;;;;8.65;6.00;;;;;;;;;;1044808;28;20489;-82
2021/03/17 00:35:39;;;;;;;7.55;6.75;;;;;;;;;;1036714;28;20054;-82
2021/03/17 00:36:11;;;;;;;7.93;5.70;;;;;;;;;;1040717;28;20057;-82
2021/03/17 00:36:43;;;;;;;7.32;6.05;;;;;;;;;;1045020;28;20049;-82
2021/03/17 00:37:14;;;;;;;7.45;6.40;;;;;;;;;;1044831;28;20060;-81
2021/03/17 00:37:45;;;;;;;7.32;6.63;;;;;;;;;;1040762;28;20092;-81
2021/03/17 00:38:16;;;;;;;9.32;6.97;;;;;;;;;;1037109;28;20052;-81
2021/03/17 00:38:47;;;;;;;7.82;6.30;;;;;;;;;;1038891;28;20045;-81
2021/03/17 00:39:18;;;;;;;7.57;6.68;;;;;;;;;;1036799;28;20434;-82
2021/03/17 00:39:49;;;;;;;9.68;6.28;;;;;;;;;;1036793;28;20061;-82
2021/03/17 00:40:21;;;;;;;8.45;7.15;;;;;;;;;;1032901;28;20158;-81
2021/03/17 00:40:52;;;;;;;8.40;6.45;;;;;;;;;;1037167;28;20057;-82
2021/03/17 00:41:23;;;;;;;10.35;6.43;;;;;;;;;;1037059;28;20144;-82
2021/03/17 00:41:54;;;;;;;7.65;6.75;;;;;;;;;;1036774;28;20130;-82
2021/03/17 00:42:26;;;;;;;7.82;6.40;;;;;;;;;;1040052;28;20200;-82
2021/03/17 00:42:57;;;;;;;8.05;7.18;;;;;;;;;;1040729;28;20486;-81
2021/03/17 00:43:28;;;;;;;8.68;6.07;;;;;;;;;;1044884;28;20052;-81
2021/03/17 00:43:59;;;;;;;10.60;7.00;;;;;;;;;;1037699;28;20046;-82
2021/03/17 00:44:30;;;;;;;8.68;6.57;;;;;;;;;;1028535;28;20439;-82
2021/03/17 00:45:02;;;;;;;8.38;6.90;;;;;;;;;;1024609;28;20059;-81
2021/03/17 00:45:33;;;;;;;7.82;6.45;;;;;;;;;;1033383;28;20051;-81
2021/03/17 00:46:04;;;;;;;8.15;6.57;;;;;;;;;;1040587;28;20058;-81
2021/03/17 00:46:35;;;;;;;7.82;6.32;;;;;;;;;;1040633;28;20076;-82
2021/03/17 00:47:06;;;;;;;9.00;6.65;;;;;;;;;;1036563;28;20053;-82
2021/03/17 00:47:38;;;;;;;7.50;5.95;;;;;;;;;;1041058;28;20041;-81
2021/03/17 00:48:09;;;;;;;8.52;6.93;;;;;;;;;;1041119;28;20489;-81
2021/03/17 00:48:40;;;;;;;9.52;6.47;;;;;;;;;;1036541;28;20050;-81
2021/03/17 00:49:11;;;;;;;7.68;6.93;;;;;;;;;;1036983;28;20050;-81
2021/03/17 00:49:42;;;;;;;8.48;6.85;;;;;;;;;;1033112;28;20057;-81
2021/03/17 00:50:16;;;;;;;9.45;7.47;;;;;;;;;;1032972;28;20073;-81
2021/03/17 00:50:46;;;;;;;7.45;6.30;;;;;;;;;;1040554;28;20552;-81
2021/03/17 00:51:18;;;;;;;7.63;6.85;;;;;;;;;;1040759;28;20045;-81
2021/03/17 00:51:50;;;;;;;8.30;6.95;;;;;;;;;;1041252;28;20446;-81
2021/03/17 00:52:21;;;;;;;8.38;6.68;;;;;;;;;;1041137;28;20433;-81
2021/03/17 00:52:53;;;;;;;7.93;6.65;;;;;;;;;;1040585;28;20068;-81
2021/03/17 00:53:24;;;;;;;8.30;6.68;;;;;;;;;;1036825;28;20050;-81
2021/03/17 00:53:55;;;;;;;8.38;6.40;;;;;;;;;;1040655;28;20060;-82
2021/03/17 00:54:26;;;;;;;7.30;6.20;;;;;;;;;;1036986;28;20053;-81
2021/03/17 00:54:57;;;;;;;10.55;7.50;;;;;;;;;;1040910;28;20055;-81
2021/03/17 00:55:28;;;;;;;7.57;6.78;;;;;;;;;;1036935;28;20057;-81
2021/03/17 00:55:58;;;;;;;8.32;7.13;;;;;;;;;;1040777;28;20445;-81
2021/03/17 00:56:30;;;;;;;7.80;7.00;;;;;;;;;;1036659;28;20065;-81
2021/03/17 00:57:01;;;;;;;8.38;6.35;;;;;;;;;;1040471;28;20052;-82
2021/03/17 00:57:36;;;;;;;7.40;6.55;;;;;;;;;;1040829;28;20049;-81
2021/03/17 00:58:09;;;;;;;9.23;7.35;;;;;;;;;;1040691;28;20410;-81
2021/03/17 00:58:40;;;;;;;9.23;7.00;;;;;;;;;;1036504;28;20522;-81
2021/03/17 00:59:12;;;;;;;8.50;6.90;;;;;;;;;;1029756;28;20086;-82
2021/03/17 00:59:43;;;;;;;8.30;6.90;;;;;;;;;;1037238;28;20188;-82
2021/03/17 01:00:15;;;;;;;8.07;6.65;;;;;;;;;;1036445;28;20057;-82
2021/03/17 01:00:46;;;;;;;8.15;7.35;;;;;;;;;;1032464;28;20096;-81
2021/03/17 01:01:18;;;;;;;8.18;6.65;;;;;;;;;;1032962;28;20046;-81
2021/03/17 01:01:50;;;;;;;7.32;6.35;;;;;;;;;;1040272;28;20375;-81
2021/03/17 01:02:21;;;;;;;7.80;7.00;;;;;;;;;;1037254;28;20576;-81
2021/03/17 01:02:53;;;;;;;7.15;6.45;;;;;;;;;;1037282;28;20046;-81
2021/03/17 01:03:24;;;;;;;7.65;6.95;;;;;;;;;;1036432;28;20506;-81
2021/03/17 01:03:55;;;;;;;8.32;6.90;;;;;;;;;;1040736;28;20179;-81
2021/03/17 01:04:26;;;;;;;9.05;7.38;;;;;;;;;;1040729;28;20068;-82
2021/03/17 01:04:58;;;;;;;9.52;7.20;;;;;;;;;;1041080;28;20041;-81
2021/03/17 01:05:29;;;;;;;7.80;7.00;;;;;;;;;;1036866;28;20446;-81
2021/03/17 01:06:00;;;;;;;8.02;6.85;;;;;;;;;;1040763;28;20514;-81
2021/03/17 01:06:31;;;;;;;9.75;7.28;;;;;;;;;;1038420;28;20049;-81
2021/03/17 01:07:02;;;;;;;8.02;6.90;;;;;;;;;;1032882;28;20062;-81
2021/03/17 01:07:33;;;;;;;7.90;6.93;;;;;;;;;;1036910;28;20080;-81
2021/03/17 01:08:07;;;;;;;9.70;7.75;;;;;;;;;;1035712;28;20116;-81
2021/03/17 01:08:38;;;;;;;7.78;7.00;;;;;;;;;;1036614;28;20485;-81
2021/03/17 01:09:09;;;;;;;7.32;6.55;;;;;;;;;;1036370;28;20461;-82
2021/03/17 01:09:40;;;;;;;8.23;7.43;;;;;;;;;;1036334;28;20542;-81
2021/03/17 01:10:18;;;;;;;7.57;6.80;;;;;;;;;;1036594;28;20056;-81
2021/03/17 01:10:49;;;;;;;7.78;6.72;;;;;;;;;;1028385;28;20047;-81
2021/03/17 01:11:20;;;;;;;7.15;6.35;;;;;;;;;;1037318;28;20043;-81
2021/03/17 01:11:51;;;;;;;9.55;6.88;;;;;;;;;;1037597;28;20045;-81
2021/03/17 01:12:28;;;;;;;7.60;6.38;;;;;;;;;;1033195;28;20042;-81
2021/03/17 01:12:59;;;;;;;9.40;7.10;;;;;;;;;;1033733;28;20062;-81
2021/03/17 01:13:30;;;;;;;7.47;6.70;;;;;;;;;;1036472;28;20054;-81
2021/03/17 01:14:01;;;;;;;8.48;6.70;;;;;;;;;;1036444;28;20065;-82
2021/03/17 01:14:32;;;;;;;7.65;6.60;;;;;;;;;;1036816;28;20050;-82
2021/03/17 01:15:05;;;;;;;8.32;6.72;;;;;;;;;;1040803;28;20046;-81
2021/03/17 01:15:37;;;;;;;10.25;7.50;;;;;;;;;;1041208;28;20156;-81
2021/03/17 01:16:08;;;;;;;7.32;6.28;;;;;;;;;;1036739;28;20057;-81
2021/03/17 01:16:39;;;;;;;7.60;6.65;;;;;;;;;;1033236;28;20430;-81
2021/03/17 01:17:11;;;;;;;8.55;7.10;;;;;;;;;;1032520;28;20054;-81
2021/03/17 01:17:42;;;;;;;9.60;7.57;;;;;;;;;;1032477;28;20054;-81
2021/03/17 01:18:14;;;;;;;8.25;7.22;;;;;;;;;;1036644;28;20522;-81
2021/03/17 01:18:45;;;;;;;8.77;7.55;;;;;;;;;;1029490;28;20054;-81
2021/03/17 01:19:16;;;;;;;7.97;6.80;;;;;;;;;;1032526;28;20073;-82
2021/03/17 01:19:47;;;;;;;9.05;7.10;;;;;;;;;;1040134;28;20053;-81
2021/03/17 01:20:22;;;;;;;8.02;6.45;;;;;;;;;;1044738;28;20444;-81
2021/03/17 01:20:53;;;;;;;9.40;6.88;;;;;;;;;;1048984;28;20136;-81
2021/03/17 01:21:24;;;;;;;10.13;6.85;;;;;;;;;;1040452;28;20163;-81
2021/03/17 01:21:55;;;;;;;8.00;7.03;;;;;;;;;;1041248;28;20117;-82
2021/03/17 01:22:26;;;;;;;9.45;7.20;;;;;;;;;;1036860;28;20057;-82
2021/03/17 01:22:58;;;;;;;9.95;7.38;;;;;;;;;;1037354;28;20045;-81
2021/03/17 01:23:29;;;;;;;12.48;8.65;;;;;;;;;;1036542;28;20057;-81
2021/03/17 01:24:00;;;;;;;7.85;6.93;;;;;;;;;;1044563;28;20052;-82
2021/03/17 01:24:31;;;;;;;8.15;7.00;;;;;;;;;;1043572;28;20049;-81
2021/03/17 01:25:06;;;;;;;9.13;7.53;;;;;;;;;;1040486;28;20051;-82
2021/03/17 01:25:39;;;;;;;9.23;6.72;;;;;;;;;;1044693;28;20071;-82
2021/03/17 01:26:10;;;;;;;9.82;7.72;;;;;;;;;;1040391;28;20054;-81
2021/03/17 01:26:41;;;;;;;9.68;8.13;;;;;;;;;;1041751;28;20060;-81
2021/03/17 01:27:12;;;;;;;7.88;7.07;;;;;;;;;;1039502;28;20124;-82
2021/03/17 01:27:43;;;;;;;8.65;7.10;;;;;;;;;;1038967;28;20072;-81
2021/03/17 01:28:14;;;;;;;8.45;7.43;;;;;;;;;;1033174;28;20073;-81
2021/03/17 01:28:45;;;;;;;8.90;7.57;;;;;;;;;;1035486;28;20557;-81
2021/03/17 01:29:18;;;;;;;11.48;7.70;;;;;;;;;;1036488;28;20510;-81
2021/03/17 01:29:48;;;;;;;8.65;7.35;;;;;;;;;;1036481;28;20053;-82
2021/03/17 01:30:27;;;;;;;10.20;7.88;;;;;;;;;;1032225;28;20053;-82
2021/03/17 01:30:59;;;;;;;10.75;7.70;;;;;;;;;;1034631;28;20046;-82
2021/03/17 01:31:30;;;;;;;11.93;8.43;;;;;;;;;;1036490;28;20091;-82
2021/03/17 01:32:02;;;;;;;8.38;6.78;;;;;;;;;;1034518;28;20153;-82
2021/03/17 01:32:34;;;;;;;9.85;8.10;;;;;;;;;;1032302;28;20487;-81
2021/03/17 01:33:06;;;;;;;11.52;8.55;;;;;;;;;;1028461;28;20126;-81
2021/03/17 01:33:37;;;;;;;11.13;8.30;;;;;;;;;;1032310;28;20411;-81
2021/03/17 01:34:08;;;;;;;10.63;8.65;;;;;;;;;;1040339;28;20553;-81
2021/03/17 01:34:39;;;;;;;10.05;8.00;;;;;;;;;;1036410;28;20050;-81
2021/03/17 01:35:12;;;;;;;8.75;7.28;;;;;;;;;;1032464;28;20415;-81
2021/03/17 01:35:45;;;;;;;9.65;7.70;;;;;;;;;;1038487;28;20430;-81
2021/03/17 01:36:17;;;;;;;12.27;8.70;;;;;;;;;;1040514;28;20053;-81
2021/03/17 01:36:48;;;;;;;9.75;8.60;;;;;;;;;;1032301;28;20066;-81
2021/03/17 01:37:19;;;;;;;10.77;8.32;;;;;;;;;;1032946;28;20061;-81
2021/03/17 01:37:50;;;;;;;10.90;8.50;;;;;;;;;;1032506;28;20053;-81
2021/03/17 01:38:23;;;;;;;9.38;8.05;;;;;;;;;;1036523;28;20058;-81
2021/03/17 01:38:54;;;;;;;10.27;8.15;;;;;;;;;;1032028;28;20118;-81
2021/03/17 01:39:25;;;;;;;10.52;7.63;;;;;;;;;;1032540;28;20061;-81
2021/03/17 01:39:56;;;;;;;10.23;8.30;;;;;;;;;;1036315;28;20522;-81
2021/03/17 01:40:28;;;;;;;8.75;7.70;;;;;;;;;;1037253;28;20050;-82
2021/03/17 01:40:59;;;;;;;8.80;7.53;;;;;;;;;;1040367;28;20520;-81
2021/03/17 01:41:30;;;;;;;9.63;8.43;;;;;;;;;;1044824;28;20053;-81
2021/03/17 01:42:02;;;;;;;10.70;8.32;;;;;;;;;;1035833;28;20054;-81
2021/03/17 01:42:33;;;;;;;10.98;8.60;;;;;;;;;;1036359;28;20434;-82
2021/03/17 01:43:09;;;;;;;11.57;8.88;;;;;;;;;;1040481;28;20198;-81
2021/03/17 01:43:40;;;;;;;10.18;8.43;;;;;;;;;;1036411;28;20100;-81
2021/03/17 01:44:11;;;;;;;9.68;8.20;;;;;;;;;;1032546;28;20050;-81
2021/03/17 01:44:42;;;;;;;9.43;8.25;;;;;;;;;;1040457;28;20049;-82
2021/03/17 01:45:15;;;;;;;9.38;7.30;;;;;;;;;;1032258;28;20502;-82
2021/03/17 01:45:46;;;;;;;9.23;7.68;;;;;;;;;;1028306;28;20062;-81
2021/03/17 01:46:24;;;;;;;10.68;8.85;;;;;;;;;;1032337;28;20043;-81
2021/03/17 01:46:55;;;;;;;10.27;8.30;;;;;;;;;;1037022;28;20053;-81
2021/03/17 01:47:27;;;;;;;10.65;7.82;;;;;;;;;;1032102;28;20560;-81
2021/03/17 01:47:58;;;;;;;10.73;8.82;;;;;;;;;;1032447;28;20054;-82
2021/03/17 01:48:29;;;;;;;9.45;8.13;;;;;;;;;;1032342;28;20501;-82
2021/03/17 01:49:00;;;;;;;10.15;8.48;;;;;;;;;;1035149;28;20097;-82
2021/03/17 01:49:31;;;;;;;9.32;8.20;;;;;;;;;;1032305;28;20052;-82
2021/03/17 01:50:07;;;;;;;9.43;7.88;;;;;;;;;;1032690;28;20136;-82
2021/03/17 01:50:42;;;;;;;9.68;7.78;;;;;;;;;;1028411;28;20137;-81
2021/03/17 01:51:13;;;;;;;10.13;8.80;;;;;;;;;;1033853;28;20051;-81
2021/03/17 01:51:44;;;;;;;9.65;7.15;;;;;;;;;;1032488;28;20050;-82
2021/03/17 01:52:15;;;;;;;10.57;8.82;;;;;;;;;;1036068;28;20125;-82
2021/03/17 01:52:47;;;;;;;10.02;8.10;;;;;;;;;;1032330;28;20089;-82
2021/03/17 01:53:27;;;;;;;12.77;9.45;;;;;;;;;;1032405;28;20100;-82
2021/03/17 01:53:59;;;;;;;13.32;9.18;;;;;;;;;;1033957;28;20062;-82
2021/03/17 01:54:30;;;;;;;10.38;8.48;;;;;;;;;;1036057;28;20431;-82
2021/03/17 01:55:03;;;;;;;11.77;8.70;;;;;;;;;;1032412;28;20526;-82
2021/03/17 01:55:38;;;;;;;12.35;9.48;;;;;;;;;;1040399;28;20160;-82
2021/03/17 01:56:10;;;;;;;10.68;8.20;;;;;;;;;;1032375;28;20208;-82
2021/03/17 01:56:41;;;;;;;12.15;7.97;;;;;;;;;;1036274;28;20058;-81
2021/03/17 01:57:12;;;;;;;13.18;9.70;;;;;;;;;;1040614;28;20050;-82
2021/03/17 01:57:47;;;;;;;10.38;8.90;;;;;;;;;;1040422;28;20053;-82
2021/03/17 01:58:19;;;;;;;10.73;8.40;;;;;;;;;;1040941;28;20053;-82
2021/03/17 01:58:50;;;;;;;11.90;9.13;;;;;;;;;;1038933;28;20124;-82
2021/03/17 01:59:22;;;;;;;10.85;8.88;;;;;;;;;;1032400;28;20535;-82
2021/03/17 01:59:53;;;;;;;12.88;8.63;;;;;;;;;;1032949;28;20046;-81
2021/03/17 02:00:27;;;;;;;10.55;8.50;;;;;;;;;;1041181;28;20425;-82
2021/03/17 02:00:58;;;;;;;9.73;7.40;;;;;;;;;;1040347;28;20498;-81
2021/03/17 02:01:29;;;;;;;8.90;7.82;;;;;;;;;;1040493;28;20045;-82
2021/03/17 02:02:01;;;;;;;12.25;8.57;;;;;;;;;;1040797;28;20049;-82
2021/03/17 02:02:34;;;;;;;11.18;9.10;;;;;;;;;;1044598;28;20060;-82
2021/03/17 02:03:07;;;;;;;13.35;9.88;;;;;;;;;;1040416;28;20049;-82
2021/03/17 02:03:38;;;;;;;10.13;8.05;;;;;;;;;;1041361;28;20559;-81
2021/03/17 02:04:09;;;;;;;9.63;7.35;;;;;;;;;;1036238;28;20103;-81
2021/03/17 02:04:40;;;;;;;9.07;7.68;;;;;;;;;;1037290;28;20048;-82
2021/03/17 02:05:13;;;;;;;9.48;7.82;;;;;;;;;;1032988;28;20059;-82
2021/03/17 02:05:46;;;;;;;11.05;9.50;;;;;;;;;;1029446;28;20051;-82
2021/03/17 02:06:19;;;;;;;12.68;9.00;;;;;;;;;;1032154;28;20077;-82
2021/03/17 02:06:51;;;;;;;11.32;9.55;;;;;;;;;;1036082;28;20054;-82
2021/03/17 02:07:22;;;;;;;11.13;9.40;;;;;;;;;;1032498;28;20165;-82
2021/03/17 02:07:55;;;;;;;12.35;9.30;;;;;;;;;;1036385;28;20427;-81
2021/03/17 02:08:32;;;;;;;13.18;9.85;;;;;;;;;;1039875;28;20072;-82
2021/03/17 02:09:03;;;;;;;13.38;9.38;;;;;;;;;;1039737;28;21805;-82
2021/03/17 02:09:34;;;;;;;12.15;9.98;;;;;;;;;;1032403;28;20046;-81
2021/03/17 02:10:13;;;;;;;13.23;9.82;;;;;;;;;;1036387;28;20081;-82
2021/03/17 02:10:45;;;;;;;13.73;10.18;;;;;;;;;;1040447;28;20112;-82
2021/03/17 02:11:16;;;;;;;13.48;10.50;;;;;;;;;;1036496;28;20544;-82
2021/03/17 02:12:07;;;;;;;15.27;12.18;;;;;;;;;;1033430;28;20057;-82
2021/03/17 02:13:15;;;;;;;13.27;9.40;;;;;;;;;;1034282;28;20084;-82
2021/03/17 02:14:01;;;;;;;10.68;8.20;;;;;;;;;;1044252;28;20052;-81
2021/03/17 02:14:39;;;;;;;11.38;8.57;;;;;;;;;;1039423;28;20360;-81
2021/03/17 02:15:36;;;;;;;9.63;7.38;;;;;;;;;;1044621;28;20063;-82
2021/03/17 02:16:14;;;;;;;7.60;5.50;;;;;;;;;;1040860;28;20041;-80
2021/03/17 02:17:02;;;;;;;10.52;8.43;;;;;;;;;;1048493;28;20131;-81
2021/03/17 02:17:35;;;;;;;9.57;6.63;;;;;;;;;;1040249;28;20083;-81
2021/03/17 02:18:17;;;;;;;11.20;8.23;;;;;;;;;;1039022;28;20100;-82
2021/03/17 02:19:13;;;;;;;10.27;8.05;;;;;;;;;;1036109;28;20053;-82
2021/03/17 02:20:06;;;;;;;13.40;8.35;;;;;;;;;;1049608;28;20052;-81
2021/03/17 02:21:02;;;;;;;10.32;8.15;;;;;;;;;;1052713;28;20048;-81
2021/03/17 02:22:10;;;;;;;13.68;8.30;;;;;;;;;;1052815;28;20051;-81
2021/03/17 02:22:57;;;;;;;9.65;7.95;;;;;;;;;;1051980;28;20058;-81
2021/03/17 02:23:34;;;;;;;9.77;7.78;;;;;;;;;;1044389;28;20045;-82
2021/03/17 02:24:22;;;;;;;10.20;8.32;;;;;;;;;;1040320;28;20046;-81
2021/03/17 02:25:24;;;;;;;10.35;8.63;;;;;;;;;;1032124;28;20051;-81
2021/03/17 02:26:10;;;;;;;10.30;8.48;;;;;;;;;;1039497;28;20072;-81
2021/03/17 02:27:05;;;;;;;8.93;6.15;;;;;;;;;;1040410;28;20060;-81
2021/03/17 02:28:08;;;;;;;9.30;8.00;;;;;;;;;;1037359;28;20045;-81
2021/03/17 02:29:02;;;;;;;9.93;7.15;;;;;;;;;;1043708;28;20045;-81
2021/03/17 02:30:06;;;;;;;10.40;7.97;;;;;;;;;;1047217;28;20048;-81
2021/03/17 02:30:51;;;;;;;10.18;6.70;;;;;;;;;;1044298;28;20045;-81
2021/03/17 02:31:44;;;;;;;7.93;5.60;;;;;;;;;;1046649;28;20071;-80
2021/03/17 02:32:36;;;;;;;8.70;6.75;;;;;;;;;;1047051;28;20045;-82
2021/03/17 02:33:33;;;;;;;9.65;7.97;;;;;;;;;;1049634;28;20053;-82
2021/03/17 02:34:07;;;;;;;8.52;7.32;;;;;;;;;;1040410;28;20060;-81
2021/03/17 02:34:41;;;;;;;10.43;7.95;;;;;;;;;;1036023;28;20050;-81
2021/03/17 02:35:13;;;;;;;11.93;9.75;;;;;;;;;;1040326;28;20457;-82
2021/03/17 02:35:47;;;;;;;11.13;9.00;;;;;;;;;;1036818;28;20100;-81
2021/03/17 02:36:42;;;;;;;10.50;8.88;;;;;;;;;;1036142;28;20080;-81
2021/03/17 02:37:19;;;;;;;9.13;7.72;;;;;;;;;;1040268;28;20076;-81
2021/03/17 02:37:50;;;;;;;10.15;8.40;;;;;;;;;;1044338;28;20041;-81
2021/03/17 02:38:22;;;;;;;10.38;9.18;;;;;;;;;;1040379;28;20627;-81
2021/03/17 02:39:04;;;;;;;10.57;8.88;;;;;;;;;;1035773;28;20487;-81
2021/03/17 02:39:44;;;;;;;13.15;9.45;;;;;;;;;;1032066;28;20051;-81
2021/03/17 02:40:24;;;;;;;10.68;8.77;;;;;;;;;;1032229;28;20062;-81
2021/03/17 02:40:59;;;;;;;8.60;7.75;;;;;;;;;;1036319;28;20054;-81
2021/03/17 02:41:32;;;;;;;8.80;7.72;;;;;;;;;;1040072;28;20049;-81
2021/03/17 02:42:21;;;;;;;8.68;7.65;;;;;;;;;;1040856;28;20077;-81
2021/03/17 02:43:00;;;;;;;8.57;7.30;;;;;;;;;;1039711;28;20107;-81
2021/03/17 02:43:53;;;;;;;8.35;6.93;;;;;;;;;;1037883;28;20407;-81
2021/03/17 02:44:25;;;;;;;10.70;8.07;;;;;;;;;;1036278;28;20061;-81
2021/03/17 02:45:06;;;;;;;11.13;9.07;;;;;;;;;;1036221;28;20054;-81
2021/03/17 02:45:42;;;;;;;12.40;9.48;;;;;;;;;;1039830;28;20049;-81
2021/03/17 02:46:14;;;;;;;11.75;8.98;;;;;;;;;;1043291;28;20049;-81
2021/03/17 02:46:46;;;;;;;11.60;8.55;;;;;;;;;;1044217;28;20056;-80
2021/03/17 02:47:18;;;;;;;9.15;7.25;;;;;;;;;;1041382;28;20117;-81
2021/03/17 02:48:11;;;;;;;8.38;6.75;;;;;;;;;;1040329;28;20076;-81
2021/03/17 02:48:44;;;;;;;11.18;8.43;;;;;;;;;;1043386;28;20072;-81
2021/03/17 02:49:28;;;;;;;10.18;8.60;;;;;;;;;;1043874;28;20409;-81
2021/03/17 02:50:00;;;;;;;11.45;8.98;;;;;;;;;;1048512;28;20052;-81
2021/03/17 02:50:32;;;;;;;11.13;9.38;;;;;;;;;;1039611;28;20544;-81
2021/03/17 02:51:11;;;;;;;9.27;7.72;;;;;;;;;;1038457;28;20081;-79
2021/03/17 02:51:46;;;;;;;9.25;7.43;;;;;;;;;;1036049;28;20054;-81
2021/03/17 02:52:21;;;;;;;9.80;7.85;;;;;;;;;;1032541;28;20046;-81
2021/03/17 02:52:54;;;;;;;10.38;9.25;;;;;;;;;;1036226;28;20057;-81
2021/03/17 02:53:26;;;;;;;11.48;9.52;;;;;;;;;;1037314;28;20470;-81
2021/03/17 02:54:00;;;;;;;11.55;8.98;;;;;;;;;;1044434;28;20049;-81
2021/03/17 02:54:31;;;;;;;11.45;10.00;;;;;;;;;;1035908;28;20076;-81
2021/03/17 02:55:05;;;;;;;9.63;8.30;;;;;;;;;;1038326;28;20050;-81
2021/03/17 02:55:42;;;;;;;10.80;9.48;;;;;;;;;;1040185;28;20060;-80
2021/03/17 02:56:14;;;;;;;11.05;8.93;;;;;;;;;;1032074;28;20050;-80
2021/03/17 02:56:48;;;;;;;14.40;9.77;;;;;;;;;;1037598;28;20041;-81
2021/03/17 02:57:21;;;;;;;11.32;9.73;;;;;;;;;;1033631;28;20159;-81
2021/03/17 02:57:54;;;;;;;11.82;9.63;;;;;;;;;;1033279;28;20046;-81
2021/03/17 02:58:26;;;;;;;11.68;9.10;;;;;;;;;;1033141;28;20046;-81
2021/03/17 02:58:58;;;;;;;10.55;9.45;;;;;;;;;;1037153;28;20057;-81
2021/03/17 02:59:30;;;;;;;13.80;10.48;;;;;;;;;;1035998;28;20510;-81
2021/03/17 03:00:04;;;;;;;11.85;9.27;;;;;;;;;;1031877;28;20066;-81
2021/03/17 03:00:35;;;;;;;13.02;9.52;;;;;;;;;;1040123;28;20055;-81
2021/03/17 03:01:07;;;;;;;12.45;8.35;;;;;;;;;;1036119;28;20049;-81
2021/03/17 03:01:40;;;;;;;10.68;8.68;;;;;;;;;;1032071;28;20050;-81
2021/03/17 03:02:13;;;;;;;11.20;8.80;;;;;;;;;;1028666;28;20047;-81
2021/03/17 03:02:48;;;;;;;10.75;8.80;;;;;;;;;;1029744;28;20133;-81
2021/03/17 03:03:20;;;;;;;10.50;9.30;;;;;;;;;;1033266;28;20066;-80
2021/03/17 03:03:51;;;;;;;9.02;7.60;;;;;;;;;;1033252;28;20511;-81
2021/03/17 03:04:23;;;;;;;8.98;7.13;;;;;;;;;;1032116;28;20538;-81
2021/03/17 03:04:54;;;;;;;8.15;7.35;;;;;;;;;;1032927;28;20050;-81
2021/03/17 03:05:27;;;;;;;12.90;8.93;;;;;;;;;;1036559;28;20543;-81
2021/03/17 03:05:59;;;;;;;9.45;7.82;;;;;;;;;;1036896;28;20050;-81
2021/03/17 03:06:31;;;;;;;8.57;7.57;;;;;;;;;;1032836;28;20057;-81
2021/03/17 03:07:03;;;;;;;10.15;8.07;;;;;;;;;;1032830;28;20116;-81
2021/03/17 03:07:34;;;;;;;4.78;3.50;;;;;;;;;;1032706;28;20057;-79
2021/03/17 03:08:05;;;;;;;7.75;6.95;;;;;;;;;;1033054;28;20054;-80
2021/03/17 03:08:37;;;;;;;7.55;6.13;;;;;;;;;;1036544;28;20050;-80
2021/03/17 03:09:09;;;;;;;10.38;6.63;;;;;;;;;;1036595;28;20049;-81
2021/03/17 03:09:40;;;;;;;8.07;6.78;;;;;;;;;;1032611;28;20133;-81
2021/03/17 03:10:12;;;;;;;7.03;6.30;;;;;;;;;;1028508;28;20087;-80
2021/03/17 03:10:45;;;;;;;7.82;7.03;;;;;;;;;;1032066;28;20053;-81
2021/03/17 03:11:16;;;;;;;6.78;6.07;;;;;;;;;;1039908;28;20091;-80
2021/03/17 03:11:50;;;;;;;10.07;5.90;;;;;;;;;;1036153;28;20129;-80
2021/03/17 03:12:21;;;;;;;11.13;7.85;;;;;;;;;;1032098;28;20057;-81
2021/03/17 03:12:52;;;;;;;9.65;7.07;;;;;;;;;;1036051;28;20050;-81
2021/03/17 03:13:24;;;;;;;8.48;7.30;;;;;;;;;;1036072;28;20204;-81
2021/03/17 03:14:13;;;;;;;6.78;6.07;;;;;;;;;;1038886;28;20049;-81
2021/03/17 03:14:45;;;;;;;7.40;6.45;;;;;;;;;;1035862;28;20053;-81
2021/03/17 03:15:17;;;;;;;8.15;7.22;;;;;;;;;;1030828;28;20533;-81
2021/03/17 03:15:51;;;;;;;8.48;7.57;;;;;;;;;;1028068;28;20058;-81
2021/03/17 03:16:23;;;;;;;9.35;7.70;;;;;;;;;;1032379;28;20185;-81
2021/03/17 03:16:57;;;;;;;9.25;7.60;;;;;;;;;;1033083;28;20050;-80
2021/03/17 03:17:28;;;;;;;8.88;7.50;;;;;;;;;;1036680;28;20121;-81
2021/03/17 03:18:02;;;;;;;10.18;7.75;;;;;;;;;;1036769;28;20053;-81
2021/03/17 03:18:34;;;;;;;8.40;7.03;;;;;;;;;;1037209;28;20045;-81
2021/03/17 03:19:06;;;;;;;10.27;7.80;;;;;;;;;;1036881;28;20069;-81
2021/03/17 03:19:45;;;;;;;8.60;7.70;;;;;;;;;;1043417;28;20048;-81
2021/03/17 03:20:20;;;;;;;8.05;6.28;;;;;;;;;;1044236;28;20497;-81
2021/03/17 03:20:55;;;;;;;13.27;7.40;;;;;;;;;;1043849;28;20045;-81
2021/03/17 03:21:27;;;;;;;9.15;7.63;;;;;;;;;;1035927;28;20050;-81
2021/03/17 03:21:58;;;;;;;8.10;7.30;;;;;;;;;;1033321;28;20050;-81